Time;durP1;ratioP1;P1;durP2;ratioP2;P2;SDS_P1;SDS_P2;PMS_P1;PMS_P2;Temp;Humidity;BMP_temperature;BMP_pressure;BME280_temperature;BME280_humidity;BME280_pressure;Samples;Min_cycle;Max_cycle;Signal;HPM_P1;HPM_P2
2023/08/13 00:02:23;;;;;;;0.52;0.10;;;16.40;99.90;;;;;;5095667;27;20043;-68
2023/08/13 00:04:48;;;;;;;0.45;0.45;;;16.40;99.90;;;;;;5114681;27;20506;-69
2023/08/13 00:07:14;;;;;;;0.10;0.10;;;16.40;99.90;;;;;;5098394;27;20468;-68
2023/08/13 00:09:43;;;;;;;0.10;0.10;;;16.40;99.90;;;;;;5121227;27;20047;-69
2023/08/13 00:12:09;;;;;;;0.08;0.08;;;16.40;99.90;;;;;;5117162;27;20119;-68
2023/08/13 00:14:34;;;;;;;0.25;0.17;;;16.50;99.90;;;;;;5100346;27;20110;-68
2023/08/13 00:17:00;;;;;;;0.10;0.10;;;16.40;99.90;;;;;;5111241;27;20039;-68
2023/08/13 00:19:27;;;;;;;0.10;0.10;;;16.50;99.90;;;;;;5111535;27;20050;-69
2023/08/13 00:21:53;;;;;;;0.30;0.30;;;16.40;99.90;;;;;;5110986;27;20133;-69
2023/08/13 00:24:18;;;;;;;0.22;0.22;;;16.50;99.90;;;;;;5104430;27;20039;-68
2023/08/13 00:26:44;;;;;;;0.10;0.10;;;16.40;99.90;;;;;;5111524;27;20501;-69
2023/08/13 00:29:10;;;;;;;0.10;0.10;;;16.40;99.90;;;;;;5118724;27;20035;-68
2023/08/13 00:31:35;;;;;;;0.80;0.45;;;16.40;99.90;;;;;;5109035;27;20045;-68
2023/08/13 00:34:01;;;;;;;0.10;0.10;;;16.30;99.90;;;;;;5106660;27;20466;-69
2023/08/13 00:36:26;;;;;;;0.10;0.10;;;16.30;99.90;;;;;;5111669;27;20096;-69
2023/08/13 00:38:52;;;;;;;0.22;0.13;;;16.30;99.90;;;;;;5106220;27;20039;-69
2023/08/13 00:41:17;;;;;;;2.35;1.02;;;16.20;99.90;;;;;;5115232;27;20042;-69
2023/08/13 00:43:43;;;;;;;1.65;0.22;;;16.20;99.90;;;;;;5114593;27;20066;-69
2023/08/13 00:46:10;;;;;;;0.10;0.10;;;16.20;99.90;;;;;;5112145;27;20513;-69
2023/08/13 00:48:38;;;;;;;1.35;0.22;;;16.20;99.90;;;;;;5108038;27;20514;-69
2023/08/13 00:51:04;;;;;;;0.05;0.05;;;16.10;99.90;;;;;;5112974;27;20104;-69
2023/08/13 00:53:30;;;;;;;0.13;0.13;;;16.10;99.90;;;;;;5104540;27;20043;-69
2023/08/13 00:55:56;;;;;;;0.22;0.22;;;16.10;99.90;;;;;;5112767;27;20036;-68
2023/08/13 00:58:22;;;;;;;1.20;0.50;;;16.10;99.90;;;;;;5104864;27;20047;-69
2023/08/13 01:00:48;;;;;;;19.77;0.63;;;16.10;99.90;;;;;;5127564;27;20045;-68
2023/08/13 01:03:13;;;;;;;0.00;0.00;;;16.10;99.90;;;;;;5114978;27;20059;-68
2023/08/13 01:05:53;;;;;;;0.57;0.57;;;16.00;99.90;;;;;;5107179;27;20134;-68
2023/08/13 01:08:25;;;;;;;0.10;0.10;;;16.00;99.90;;;;;;5105159;27;20043;-68
2023/08/13 01:11:05;;;;;;;0.20;0.20;;;16.00;99.90;;;;;;5109808;27;20060;-68
2023/08/13 01:13:43;;;;;;;1.25;1.02;;;16.10;99.90;;;;;;5105121;27;20087;-69
2023/08/13 01:16:09;;;;;;;4.40;0.52;;;16.10;99.90;;;;;;5129805;27;20389;-67
2023/08/13 01:18:39;;;;;;;0.52;0.52;;;16.10;99.90;;;;;;5102971;27;20043;-68
2023/08/13 01:21:05;;;;;;;6.75;0.93;;;16.00;99.90;;;;;;5143187;27;20031;-67
2023/08/13 01:23:31;;;;;;;0.30;0.30;;;16.00;99.90;;;;;;5112236;27;20160;-69
2023/08/13 01:26:07;;;;;;;0.10;0.10;;;16.00;99.90;;;;;;5131583;27;20039;-68
2023/08/13 01:28:39;;;;;;;1.65;1.02;;;16.00;99.90;;;;;;5108822;27;20074;-68
2023/08/13 01:31:11;;;;;;;0.35;0.22;;;16.00;99.90;;;;;;5117331;27;20031;-69
2023/08/13 01:33:42;;;;;;;2.92;0.75;;;16.00;99.90;;;;;;5100616;27;20125;-69
2023/08/13 01:36:09;;;;;;;0.98;0.98;;;16.00;99.90;;;;;;5104854;27;20043;-68
2023/08/13 01:38:35;;;;;;;0.93;0.55;;;16.00;99.90;;;;;;5093408;27;20068;-67
2023/08/13 01:41:01;;;;;;;0.52;0.52;;;15.90;99.90;;;;;;5104744;27;20043;-67
2023/08/13 01:43:27;;;;;;;1.02;0.40;;;15.90;99.90;;;;;;5111870;27;20122;-68
2023/08/13 01:45:53;;;;;;;0.10;0.10;;;15.90;99.90;;;;;;5113816;27;20126;-69
2023/08/13 01:48:19;;;;;;;1.77;0.30;;;15.90;99.90;;;;;;5110834;27;20047;-68
2023/08/13 01:50:44;;;;;;;1.80;1.55;;;15.90;99.90;;;;;;5139754;27;20108;-66
2023/08/13 01:53:10;;;;;;;1.88;0.82;;;16.00;99.90;;;;;;5123849;27;20122;-69
2023/08/13 01:55:35;;;;;;;0.22;0.22;;;15.90;99.90;;;;;;5102788;27;20398;-69
2023/08/13 01:58:01;;;;;;;0.10;0.10;;;15.90;99.90;;;;;;5111261;27;20042;-67
2023/08/13 02:00:27;;;;;;;0.10;0.10;;;15.90;99.90;;;;;;5103456;27;20133;-68
2023/08/13 02:02:55;;;;;;;0.20;0.20;;;15.90;99.90;;;;;;5111799;27;20135;-68
2023/08/13 02:05:20;;;;;;;0.10;0.10;;;15.90;99.90;;;;;;5098580;27;20039;-68
2023/08/13 02:07:46;;;;;;;1.85;0.35;;;15.90;99.90;;;;;;5107355;28;20027;-68
2023/08/13 02:10:12;;;;;;;5.63;0.45;;;15.90;99.90;;;;;;5106657;27;20534;-68
2023/08/13 02:12:38;;;;;;;0.30;0.20;;;15.90;99.90;;;;;;5110196;27;20035;-68
2023/08/13 02:15:05;;;;;;;0.20;0.20;;;15.90;99.90;;;;;;5105032;27;20043;-68
2023/08/13 02:17:30;;;;;;;0.90;0.13;;;15.80;99.90;;;;;;5112986;27;20436;-68
2023/08/13 02:19:56;;;;;;;0.15;0.15;;;15.90;99.90;;;;;;5103320;27;20031;-68
2023/08/13 02:22:22;;;;;;;0.43;0.40;;;15.90;99.90;;;;;;5110058;27;20561;-68
2023/08/13 02:24:47;;;;;;;0.30;0.30;;;15.80;99.90;;;;;;5127272;27;20039;-68
2023/08/13 02:27:13;;;;;;;1.10;0.25;;;15.80;99.90;;;;;;5103059;28;20071;-68
2023/08/13 02:29:38;;;;;;;0.10;0.10;;;15.80;99.90;;;;;;5106427;27;20043;-68
2023/08/13 02:32:04;;;;;;;0.28;0.28;;;15.80;99.90;;;;;;5110676;27;20500;-68
2023/08/13 02:34:43;;;;;;;0.88;0.20;;;15.80;99.90;;;;;;5099872;27;20450;-68
2023/08/13 02:37:09;;;;;;;0.10;0.10;;;15.70;99.90;;;;;;5108239;27;20078;-69
2023/08/13 02:39:34;;;;;;;0.13;0.13;;;15.80;99.90;;;;;;5108945;27;20067;-69
2023/08/13 02:42:00;;;;;;;0.50;0.50;;;15.70;99.90;;;;;;5107143;28;20082;-69
2023/08/13 02:44:26;;;;;;;0.35;0.20;;;15.70;99.90;;;;;;5106204;27;20095;-68
2023/08/13 02:46:52;;;;;;;0.38;0.17;;;15.70;99.90;;;;;;5111673;28;20035;-68
2023/08/13 02:49:18;;;;;;;0.43;0.28;;;15.60;99.90;;;;;;5103942;27;20093;-68
2023/08/13 02:51:43;;;;;;;0.32;0.32;;;15.70;99.90;;;;;;5111663;27;20031;-68
2023/08/13 02:54:09;;;;;;;0.10;0.10;;;15.60;99.90;;;;;;5101324;28;20042;-69
2023/08/13 02:56:35;;;;;;;0.35;0.32;;;15.60;99.90;;;;;;5105716;28;20043;-69
2023/08/13 02:59:00;;;;;;;0.55;0.25;;;15.60;99.90;;;;;;5105846;28;20039;-69
2023/08/13 03:01:26;;;;;;;0.30;0.30;;;15.60;99.90;;;;;;5121214;27;20535;-68
2023/08/13 03:03:54;;;;;;;0.20;0.20;;;15.60;99.90;;;;;;5091691;28;20068;-68
2023/08/13 03:06:21;;;;;;;1.75;0.30;;;15.60;99.90;;;;;;5099617;28;20118;-69
2023/08/13 03:08:47;;;;;;;0.25;0.20;;;15.50;99.90;;;;;;5102114;28;20043;-68
2023/08/13 03:11:12;;;;;;;0.45;0.45;;;15.50;99.90;;;;;;5105892;28;20478;-69
2023/08/13 03:13:38;;;;;;;0.38;0.30;;;15.50;99.90;;;;;;5122588;28;20042;-68
2023/08/13 03:16:04;;;;;;;0.20;0.20;;;15.50;99.90;;;;;;5110795;28;20034;-68
2023/08/13 03:18:30;;;;;;;0.32;0.32;;;15.40;99.90;;;;;;5105329;28;20063;-68
2023/08/13 03:20:55;;;;;;;0.10;0.10;;;15.50;99.90;;;;;;5111522;28;20043;-68
2023/08/13 03:23:21;;;;;;;2.13;0.65;;;15.40;99.90;;;;;;5123965;28;20031;-69
2023/08/13 03:25:47;;;;;;;0.10;0.10;;;15.40;99.90;;;;;;5109901;28;20070;-68
2023/08/13 03:28:12;;;;;;;0.90;0.30;;;15.40;99.90;;;;;;5108662;28;20506;-68
2023/08/13 03:30:38;;;;;;;0.45;0.20;;;15.40;99.90;;;;;;5109844;28;20107;-68
2023/08/13 03:33:04;;;;;;;0.08;0.08;;;15.40;99.90;;;;;;5105613;28;20177;-68
2023/08/13 03:35:29;;;;;;;0.25;0.25;;;15.40;99.90;;;;;;5101397;28;20027;-68
2023/08/13 03:37:55;;;;;;;0.10;0.10;;;15.40;99.90;;;;;;5086180;28;20036;-68
2023/08/13 03:40:20;;;;;;;0.15;0.15;;;15.30;99.90;;;;;;5143663;27;20088;-68
2023/08/13 03:42:46;;;;;;;0.10;0.10;;;15.40;99.90;;;;;;5107969;28;20097;-68
2023/08/13 03:45:11;;;;;;;3.92;1.00;;;15.30;99.90;;;;;;5098492;28;20490;-68
2023/08/13 03:47:37;;;;;;;0.55;0.17;;;15.30;99.90;;;;;;5118884;27;20089;-68
2023/08/13 03:50:03;;;;;;;1.00;0.13;;;15.30;99.90;;;;;;5101021;28;20055;-69
2023/08/13 03:52:29;;;;;;;0.22;0.22;;;15.30;99.90;;;;;;5107880;27;20548;-69
2023/08/13 03:54:54;;;;;;;0.00;0.00;;;15.20;99.90;;;;;;5114164;27;20039;-68
2023/08/13 03:57:20;;;;;;;0.93;0.50;;;15.30;99.90;;;;;;5109977;27;20390;-68
2023/08/13 03:59:45;;;;;;;0.00;0.00;;;15.30;99.90;;;;;;5132562;27;20470;-68
2023/08/13 04:02:11;;;;;;;4.25;0.20;;;15.20;99.90;;;;;;5101297;27;20078;-68
2023/08/13 04:04:37;;;;;;;0.47;0.22;;;15.30;99.90;;;;;;5109017;27;20507;-68
2023/08/13 04:07:03;;;;;;;1.00;0.10;;;15.30;99.90;;;;;;5112055;27;20229;-68
2023/08/13 04:09:28;;;;;;;0.10;0.10;;;15.30;99.90;;;;;;5132529;27;20096;-68
2023/08/13 04:11:54;;;;;;;0.05;0.05;;;15.30;99.90;;;;;;5107613;28;20035;-68
2023/08/13 04:14:20;;;;;;;0.43;0.17;;;15.40;99.90;;;;;;5125036;27;20513;-68
2023/08/13 04:16:45;;;;;;;0.28;0.20;;;15.40;99.90;;;;;;5104166;28;20541;-68
2023/08/13 04:19:11;;;;;;;0.10;0.10;;;15.40;99.90;;;;;;5107678;28;20398;-68
2023/08/13 04:21:36;;;;;;;0.08;0.08;;;15.40;99.90;;;;;;5095559;27;20137;-68
2023/08/13 04:24:02;;;;;;;0.35;0.32;;;15.40;99.90;;;;;;5124461;27;20039;-68
2023/08/13 04:26:28;;;;;;;0.17;0.10;;;15.40;99.90;;;;;;5112429;27;20118;-68
2023/08/13 04:28:53;;;;;;;0.10;0.10;;;15.40;99.90;;;;;;5106404;27;20031;-68
2023/08/13 04:31:20;;;;;;;0.60;0.47;;;15.40;99.90;;;;;;5108075;27;20039;-69
2023/08/13 04:33:49;;;;;;;0.47;0.25;;;15.50;99.90;;;;;;5108758;27;20127;-68
2023/08/13 04:36:15;;;;;;;0.10;0.10;;;15.50;99.90;;;;;;5109715;27;20027;-67
2023/08/13 04:38:45;;;;;;;0.43;0.10;;;15.50;99.90;;;;;;5105468;27;20043;-68
2023/08/13 04:41:11;;;;;;;0.15;0.15;;;15.50;99.90;;;;;;5102683;27;20040;-68
2023/08/13 04:43:36;;;;;;;1.08;0.20;;;15.60;99.90;;;;;;5102206;27;20079;-68
2023/08/13 04:46:02;;;;;;;0.10;0.10;;;15.60;99.90;;;;;;5110920;27;20191;-68
2023/08/13 04:48:42;;;;;;;0.43;0.43;;;15.50;99.90;;;;;;5132912;27;20035;-67
2023/08/13 04:51:08;;;;;;;0.47;0.47;;;15.60;99.90;;;;;;5103906;27;20085;-68
2023/08/13 04:53:34;;;;;;;0.10;0.10;;;15.60;99.90;;;;;;5103770;27;20036;-69
2023/08/13 04:55:59;;;;;;;0.45;0.20;;;15.60;99.90;;;;;;5109075;27;20039;-68
2023/08/13 04:58:25;;;;;;;0.17;0.17;;;15.60;99.90;;;;;;5105480;27;20040;-68
2023/08/13 05:00:52;;;;;;;1.77;0.50;;;15.70;99.90;;;;;;5122366;27;20417;-68
2023/08/13 05:03:18;;;;;;;0.10;0.10;;;15.70;99.90;;;;;;5104041;27;21024;-68
2023/08/13 05:05:44;;;;;;;0.40;0.32;;;15.70;99.90;;;;;;5103016;27;20043;-68
2023/08/13 05:08:10;;;;;;;0.05;0.05;;;15.70;99.90;;;;;;5100713;27;20050;-68
2023/08/13 05:10:35;;;;;;;0.47;0.47;;;15.70;99.90;;;;;;5102629;27;20466;-68
2023/08/13 05:13:01;;;;;;;0.10;0.10;;;15.80;99.90;;;;;;5103618;27;20035;-69
2023/08/13 05:15:27;;;;;;;0.08;0.08;;;15.80;99.90;;;;;;5104393;27;20042;-68
2023/08/13 05:17:53;;;;;;;0.15;0.15;;;15.80;99.90;;;;;;5103418;27;20131;-68
2023/08/13 05:20:19;;;;;;;0.00;0.00;;;15.80;99.90;;;;;;5136634;27;20035;-68
2023/08/13 05:22:44;;;;;;;0.15;0.15;;;15.90;99.90;;;;;;5105716;27;20544;-68
2023/08/13 05:25:10;;;;;;;0.65;0.20;;;15.90;99.90;;;;;;5098694;27;20063;-68
2023/08/13 05:27:35;;;;;;;0.55;0.10;;;15.90;99.90;;;;;;5106698;28;20058;-68
2023/08/13 05:30:02;;;;;;;0.90;0.40;;;15.90;99.90;;;;;;5104473;27;20381;-68
2023/08/13 05:32:28;;;;;;;0.35;0.35;;;16.00;99.90;;;;;;5101150;28;20440;-68
2023/08/13 05:34:54;;;;;;;0.10;0.10;;;16.00;99.90;;;;;;5105368;27;20031;-68
2023/08/13 05:37:20;;;;;;;0.40;0.40;;;16.00;99.90;;;;;;5106164;27;20113;-68
2023/08/13 05:39:45;;;;;;;0.47;0.45;;;16.00;99.90;;;;;;5111372;27;20046;-68
2023/08/13 05:42:11;;;;;;;10.13;1.48;;;16.10;99.90;;;;;;5116661;27;20044;-68
2023/08/13 05:44:37;;;;;;;1.00;0.63;;;16.10;99.90;;;;;;5104373;27;20039;-68
2023/08/13 05:47:03;;;;;;;0.15;0.15;;;16.10;99.90;;;;;;5123642;27;20466;-68
2023/08/13 05:49:28;;;;;;;0.00;0.00;;;16.20;99.90;;;;;;5106541;27;20046;-68
2023/08/13 05:51:54;;;;;;;0.30;0.30;;;16.30;99.90;;;;;;5124056;27;20039;-68
2023/08/13 05:54:19;;;;;;;0.10;0.10;;;16.30;99.90;;;;;;5100853;27;20036;-68
2023/08/13 05:56:46;;;;;;;0.10;0.10;;;16.20;99.90;;;;;;5107484;27;20030;-67
2023/08/13 05:59:12;;;;;;;0.68;0.68;;;16.30;99.90;;;;;;5102571;27;20035;-68
2023/08/13 06:01:37;;;;;;;0.57;0.57;;;16.40;99.90;;;;;;5116349;27;20098;-68
2023/08/13 06:04:03;;;;;;;0.47;0.47;;;16.50;99.90;;;;;;5116030;27;20481;-67
2023/08/13 06:06:29;;;;;;;0.30;0.30;;;16.50;99.90;;;;;;5107331;27;20042;-68
2023/08/13 06:08:55;;;;;;;0.20;0.20;;;16.50;99.90;;;;;;5101790;27;20557;-67
2023/08/13 06:11:21;;;;;;;0.20;0.20;;;16.50;99.90;;;;;;5107852;27;20031;-66
2023/08/13 06:13:47;;;;;;;0.10;0.10;;;16.60;99.90;;;;;;5105462;27;20046;-67
2023/08/13 06:16:12;;;;;;;4.38;0.32;;;16.60;99.90;;;;;;5107601;28;20042;-68
2023/08/13 06:18:38;;;;;;;0.10;0.10;;;16.60;99.90;;;;;;5106007;27;20875;-67
2023/08/13 06:21:04;;;;;;;4.75;0.98;;;16.70;99.90;;;;;;5107115;27;20444;-68
2023/08/13 06:23:30;;;;;;;0.77;0.30;;;16.60;99.90;;;;;;5135375;27;20039;-67
2023/08/13 06:25:56;;;;;;;10.40;0.45;;;16.60;99.90;;;;;;5109174;27;20331;-67
2023/08/13 06:28:22;;;;;;;0.10;0.10;;;16.80;99.90;;;;;;5109046;27;20394;-66
2023/08/13 06:30:47;;;;;;;0.20;0.20;;;16.90;99.90;;;;;;5101317;27;20428;-67
2023/08/13 06:33:13;;;;;;;1.48;1.38;;;17.00;99.90;;;;;;5100909;27;20035;-67
2023/08/13 06:35:46;;;;;;;0.20;0.20;;;17.20;99.90;;;;;;5105749;27;20039;-66
2023/08/13 06:38:13;;;;;;;0.20;0.20;;;17.20;99.90;;;;;;5104407;27;20550;-68
2023/08/13 06:40:38;;;;;;;0.00;0.00;;;17.20;99.90;;;;;;5107072;28;20096;-68
2023/08/13 06:43:04;;;;;;;0.80;0.65;;;17.30;99.90;;;;;;5104401;27;20419;-67
2023/08/13 06:45:30;;;;;;;0.30;0.30;;;17.30;99.90;;;;;;5103269;28;20398;-68
2023/08/13 06:48:04;;;;;;;0.65;0.57;;;17.40;99.90;;;;;;5104664;27;20068;-67
2023/08/13 06:50:30;;;;;;;0.38;0.38;;;17.60;99.90;;;;;;5100490;28;20114;-66
2023/08/13 06:52:56;;;;;;;0.90;0.10;;;17.80;99.90;;;;;;5132614;27;20155;-66
2023/08/13 06:55:22;;;;;;;0.17;0.17;;;17.80;99.90;;;;;;5108218;28;20054;-67
2023/08/13 06:57:48;;;;;;;0.00;0.00;;;17.90;99.90;;;;;;5099024;28;20043;-68
2023/08/13 07:00:15;;;;;;;0.20;0.20;;;17.90;99.90;;;;;;5107217;28;20066;-67
2023/08/13 07:02:41;;;;;;;0.20;0.20;;;17.80;99.90;;;;;;5110893;28;20108;-67
2023/08/13 07:05:11;;;;;;;0.38;0.38;;;17.90;99.90;;;;;;5098734;28;20123;-68
2023/08/13 07:07:36;;;;;;;0.95;0.47;;;17.90;99.90;;;;;;5090807;28;20130;-66
2023/08/13 07:10:04;;;;;;;0.45;0.45;;;17.90;99.90;;;;;;5126187;27;20088;-67
2023/08/13 07:12:29;;;;;;;0.20;0.20;;;17.90;99.90;;;;;;5139506;27;20616;-68
2023/08/13 07:14:55;;;;;;;0.10;0.10;;;17.90;99.90;;;;;;5101792;28;20070;-68
2023/08/13 07:17:21;;;;;;;4.60;0.60;;;18.00;99.90;;;;;;5104191;28;20118;-68
2023/08/13 07:19:47;;;;;;;0.75;0.55;;;18.00;99.90;;;;;;5092089;28;20039;-67
2023/08/13 07:22:13;;;;;;;0.25;0.22;;;18.00;99.90;;;;;;5103382;28;20044;-67
2023/08/13 07:24:39;;;;;;;0.10;0.10;;;18.00;99.90;;;;;;5116168;28;20172;-68
2023/08/13 07:27:04;;;;;;;0.15;0.15;;;18.10;99.90;;;;;;5111064;28;20042;-67
2023/08/13 07:29:30;;;;;;;0.52;0.52;;;18.10;99.90;;;;;;5094673;27;20534;-67
2023/08/13 07:31:55;;;;;;;0.85;0.43;;;18.10;99.90;;;;;;5125201;27;20512;-67
2023/08/13 07:34:21;;;;;;;1.30;0.50;;;18.00;99.90;;;;;;5111927;27;20117;-67
2023/08/13 07:36:47;;;;;;;0.25;0.25;;;18.00;99.90;;;;;;5120399;27;20039;-68
2023/08/13 07:39:15;;;;;;;0.70;0.70;;;18.10;99.90;;;;;;5134028;27;20156;-66
2023/08/13 07:41:41;;;;;;;0.05;0.05;;;18.10;99.90;;;;;;5118145;27;20099;-66
2023/08/13 07:44:07;;;;;;;0.00;0.00;;;18.20;99.90;;;;;;5112106;27;20735;-68
2023/08/13 07:46:33;;;;;;;0.35;0.35;;;18.30;99.90;;;;;;5113965;27;20173;-68
2023/08/13 07:48:58;;;;;;;0.70;0.70;;;18.40;99.90;;;;;;5102254;27;20114;-68
2023/08/13 07:51:25;;;;;;;0.20;0.20;;;18.40;99.90;;;;;;5107209;27;20108;-67
2023/08/13 07:53:50;;;;;;;0.32;0.30;;;18.50;99.90;;;;;;5109581;27;20043;-67
2023/08/13 07:56:16;;;;;;;20.27;1.48;;;18.60;99.90;;;;;;5099097;27;20046;-67
2023/08/13 07:58:41;;;;;;;0.45;0.28;;;18.50;99.90;;;;;;5099410;27;20042;-67
2023/08/13 08:01:08;;;;;;;0.10;0.10;;;18.60;99.90;;;;;;5122266;27;20035;-67
2023/08/13 08:03:33;;;;;;;0.30;0.30;;;18.60;99.90;;;;;;5096840;28;20443;-67
2023/08/13 08:05:59;;;;;;;0.10;0.10;;;18.60;99.90;;;;;;5110255;27;20046;-67
2023/08/13 08:08:25;;;;;;;0.30;0.10;;;18.60;99.90;;;;;;5103845;27;20045;-67
2023/08/13 08:10:50;;;;;;;0.20;0.20;;;18.70;99.90;;;;;;5118151;27;20043;-68
2023/08/13 08:13:16;;;;;;;0.20;0.10;;;18.80;99.90;;;;;;5111690;27;20442;-68
2023/08/13 08:15:42;;;;;;;0.32;0.32;;;18.90;99.90;;;;;;5096766;27;20028;-67
2023/08/13 08:18:08;;;;;;;1.13;0.60;;;19.00;99.90;;;;;;5105478;27;20078;-66
2023/08/13 08:20:33;;;;;;;0.47;0.28;;;19.20;99.90;;;;;;5117700;27;20464;-66
2023/08/13 08:22:59;;;;;;;1.02;1.02;;;19.30;99.90;;;;;;5116531;27;20058;-68
2023/08/13 08:25:25;;;;;;;1.50;0.82;;;19.30;99.90;;;;;;5096341;27;20102;-67
2023/08/13 08:27:51;;;;;;;0.38;0.38;;;19.40;99.90;;;;;;5108438;27;20035;-66
2023/08/13 08:30:16;;;;;;;0.13;0.13;;;19.50;99.90;;;;;;5111000;27;20039;-67
2023/08/13 08:32:42;;;;;;;0.45;0.40;;;19.50;99.90;;;;;;5117794;27;20335;-67
2023/08/13 08:35:08;;;;;;;1.08;0.85;;;19.50;99.90;;;;;;5109202;27;20040;-68
2023/08/13 08:37:34;;;;;;;0.80;0.80;;;19.50;99.90;;;;;;5098416;28;20036;-69
2023/08/13 08:39:59;;;;;;;0.03;0.03;;;19.60;99.90;;;;;;5102291;27;20035;-67
2023/08/13 08:42:26;;;;;;;0.00;0.00;;;19.70;99.90;;;;;;5090345;27;20102;-66
2023/08/13 08:44:52;;;;;;;0.93;0.70;;;19.80;99.90;;;;;;5098366;27;20485;-67
2023/08/13 08:47:20;;;;;;;0.13;0.13;;;19.90;99.90;;;;;;5110141;27;20039;-67
2023/08/13 08:49:47;;;;;;;0.40;0.40;;;19.90;99.90;;;;;;5117169;27;20082;-68
2023/08/13 08:52:16;;;;;;;0.20;0.20;;;20.00;99.90;;;;;;5114709;27;20494;-66
2023/08/13 08:54:43;;;;;;;0.40;0.40;;;19.90;99.90;;;;;;5127124;27;20037;-67
2023/08/13 08:57:08;;;;;;;0.20;0.20;;;19.90;99.90;;;;;;5098408;27;20429;-68
2023/08/13 08:59:35;;;;;;;0.10;0.10;;;20.00;99.90;;;;;;5125340;27;20051;-67
2023/08/13 09:02:03;;;;;;;0.28;0.28;;;20.00;99.90;;;;;;5114429;27;20454;-67
2023/08/13 09:04:28;;;;;;;0.20;0.20;;;20.10;99.90;;;;;;5125839;27;20485;-65
2023/08/13 09:07:03;;;;;;;0.32;0.20;;;20.20;99.90;;;;;;5106130;27;20039;-66
2023/08/13 09:09:29;;;;;;;0.43;0.20;;;20.30;99.90;;;;;;5107032;27;20080;-67
2023/08/13 09:11:56;;;;;;;0.17;0.17;;;20.40;99.90;;;;;;5110457;27;20038;-66
2023/08/13 09:14:23;;;;;;;0.22;0.22;;;20.50;99.90;;;;;;5100002;28;20039;-67
2023/08/13 09:16:51;;;;;;;0.10;0.10;;;20.60;99.90;;;;;;5107331;27;20432;-68
2023/08/13 09:19:17;;;;;;;0.10;0.10;;;20.70;99.90;;;;;;5107667;27;20130;-68
2023/08/13 09:22:01;;;;;;;0.20;0.20;;;20.80;99.90;;;;;;5106656;27;20259;-68
2023/08/13 09:24:37;;;;;;;0.30;0.30;;;20.90;99.90;;;;;;5098875;28;20401;-67
2023/08/13 09:27:08;;;;;;;0.47;0.13;;;21.10;99.90;;;;;;5098266;27;20039;-67
2023/08/13 09:29:36;;;;;;;0.38;0.28;;;21.20;99.90;;;;;;5112011;27;20081;-67
2023/08/13 09:32:03;;;;;;;0.03;0.03;;;21.30;99.90;;;;;;5123410;27;20063;-67
2023/08/13 09:34:31;;;;;;;4.28;0.57;;;21.30;99.90;;;;;;5110186;27;20397;-68
2023/08/13 09:36:58;;;;;;;0.00;0.00;;;21.30;99.90;;;;;;5117733;27;20537;-66
2023/08/13 09:39:25;;;;;;;0.17;0.17;;;21.40;99.90;;;;;;5094137;28;20065;-68
2023/08/13 09:41:52;;;;;;;0.10;0.10;;;21.50;99.90;;;;;;5108492;27;20520;-68
2023/08/13 09:44:20;;;;;;;0.38;0.25;;;21.50;99.90;;;;;;5104372;27;20050;-67
2023/08/13 09:46:51;;;;;;;0.85;0.50;;;21.50;99.90;;;;;;5105455;27;20089;-67
2023/08/13 09:49:17;;;;;;;1.27;0.55;;;21.50;99.90;;;;;;5108053;27;20043;-67
2023/08/13 09:51:46;;;;;;;0.20;0.20;;;21.50;99.90;;;;;;5112534;27;20060;-66
2023/08/13 09:54:52;;;;;;;0.30;0.30;;;21.40;99.90;;;;;;5108606;27;20027;-67
2023/08/13 09:57:22;;;;;;;0.10;0.10;;;21.30;99.90;;;;;;5102278;28;20451;-67
2023/08/13 09:59:49;;;;;;;0.20;0.20;;;21.10;99.90;;;;;;5092131;28;20134;-67
2023/08/13 10:02:15;;;;;;;0.20;0.20;;;21.20;99.90;;;;;;5113340;27;21861;-65
2023/08/13 10:04:42;;;;;;;1.10;0.45;;;21.30;99.90;;;;;;5097847;27;20138;-66
2023/08/13 10:07:08;;;;;;;0.10;0.10;;;21.40;99.90;;;;;;5113809;27;20075;-68
2023/08/13 10:09:35;;;;;;;0.20;0.20;;;21.50;99.90;;;;;;5104988;27;20133;-66
2023/08/13 10:12:02;;;;;;;0.10;0.10;;;21.60;99.90;;;;;;5110040;27;20158;-68
2023/08/13 10:14:28;;;;;;;0.10;0.10;;;21.60;99.90;;;;;;5092573;28;20048;-66
2023/08/13 10:16:54;;;;;;;0.10;0.10;;;21.60;99.90;;;;;;5105425;27;20524;-66
2023/08/13 10:19:28;;;;;;;0.30;0.17;;;21.50;99.90;;;;;;5129777;27;20072;-66
2023/08/13 10:21:58;;;;;;;0.20;0.20;;;21.40;99.90;;;;;;5114778;27;20137;-67
2023/08/13 10:24:27;;;;;;;0.20;0.20;;;21.50;99.90;;;;;;5107201;27;20128;-65
2023/08/13 10:26:53;;;;;;;0.57;0.57;;;21.60;99.90;;;;;;5103863;27;20094;-65
2023/08/13 10:29:20;;;;;;;0.10;0.10;;;21.50;99.90;;;;;;5106145;27;20039;-64
2023/08/13 10:31:59;;;;;;;0.00;0.00;;;21.40;99.90;;;;;;5117526;27;20039;-66
2023/08/13 10:34:43;;;;;;;0.25;0.25;;;21.30;99.90;;;;;;5106347;27;20508;-66
2023/08/13 10:37:18;;;;;;;0.10;0.10;;;21.30;99.90;;;;;;5105838;27;20039;-67
2023/08/13 10:39:45;;;;;;;0.00;0.00;;;21.50;99.90;;;;;;5108528;27;20388;-67
2023/08/13 10:42:26;;;;;;;0.32;0.30;;;21.60;99.90;;;;;;5116762;27;20031;-66
2023/08/13 10:44:54;;;;;;;0.10;0.10;;;21.50;99.90;;;;;;5102077;27;20056;-65
2023/08/13 10:47:22;;;;;;;0.10;0.10;;;21.40;99.90;;;;;;5109656;27;20035;-65
2023/08/13 10:49:48;;;;;;;0.17;0.17;;;21.40;99.90;;;;;;5100882;27;20134;-66
2023/08/13 10:52:14;;;;;;;0.28;0.20;;;21.30;99.90;;;;;;5099192;27;20181;-67
2023/08/13 10:54:40;;;;;;;0.00;0.00;;;21.20;99.90;;;;;;5110947;28;20043;-66
2023/08/13 10:57:06;;;;;;;0.20;0.20;;;21.30;99.90;;;;;;5103721;28;20179;-66
2023/08/13 10:59:33;;;;;;;0.03;0.03;;;21.40;99.90;;;;;;5120761;27;20047;-66
2023/08/13 11:02:08;;;;;;;0.20;0.20;;;21.30;99.90;;;;;;5111559;28;20086;-67
2023/08/13 11:04:35;;;;;;;5.05;0.50;;;21.30;99.90;;;;;;5094673;28;20564;-66
2023/08/13 11:07:01;;;;;;;0.10;0.10;;;21.30;99.90;;;;;;5100687;27;20035;-67
2023/08/13 11:09:30;;;;;;;0.25;0.13;;;21.20;99.90;;;;;;5108857;27;20039;-68
2023/08/13 11:11:56;;;;;;;0.10;0.10;;;21.20;99.90;;;;;;5119408;27;20312;-67
2023/08/13 11:14:22;;;;;;;0.25;0.20;;;21.20;99.90;;;;;;5095831;27;20428;-67
2023/08/13 11:16:47;;;;;;;0.25;0.15;;;21.30;99.90;;;;;;5089833;28;20085;-68
2023/08/13 11:19:13;;;;;;;0.10;0.10;;;21.20;99.90;;;;;;5130636;27;20457;-67
2023/08/13 11:21:39;;;;;;;0.20;0.17;;;21.20;99.90;;;;;;5122496;27;20065;-67
2023/08/13 11:24:08;;;;;;;1.10;0.40;;;21.30;99.90;;;;;;5105300;27;20063;-66
2023/08/13 11:26:34;;;;;;;0.13;0.13;;;21.50;99.90;;;;;;5117645;27;20122;-67
2023/08/13 11:29:00;;;;;;;0.90;0.30;;;21.50;99.90;;;;;;5105782;28;20135;-67
2023/08/13 11:31:26;;;;;;;1.65;1.42;;;21.60;99.90;;;;;;5096686;27;20852;-67
2023/08/13 11:33:51;;;;;;;0.15;0.15;;;21.70;99.90;;;;;;5104620;27;20485;-67
2023/08/13 11:36:18;;;;;;;0.50;0.43;;;21.60;99.90;;;;;;5109880;27;20039;-67
2023/08/13 11:38:44;;;;;;;0.00;0.00;;;21.60;99.90;;;;;;5104155;27;20047;-66
2023/08/13 11:41:13;;;;;;;0.10;0.10;;;21.60;99.90;;;;;;5115065;27;20059;-67
2023/08/13 11:43:39;;;;;;;0.20;0.20;;;21.50;99.90;;;;;;5108514;27;20445;-67
2023/08/13 11:46:05;;;;;;;0.30;0.30;;;21.30;99.90;;;;;;5127448;27;20036;-66
2023/08/13 11:48:32;;;;;;;0.20;0.20;;;21.20;99.90;;;;;;5102840;27;20043;-66
2023/08/13 11:51:11;;;;;;;0.45;0.45;;;21.00;99.90;;;;;;5122200;27;20035;-68
2023/08/13 11:53:42;;;;;;;0.28;0.28;;;20.90;99.90;;;;;;5114230;27;20031;-67
2023/08/13 11:56:09;;;;;;;0.20;0.15;;;20.80;99.90;;;;;;5104033;27;20115;-68
2023/08/13 11:58:36;;;;;;;0.47;0.47;;;20.80;99.90;;;;;;5098997;27;20051;-68
2023/08/13 12:01:03;;;;;;;1.10;0.45;;;20.80;99.90;;;;;;5110071;27;20034;-68
2023/08/13 12:03:43;;;;;;;0.38;0.28;;;20.90;99.90;;;;;;5104538;27;20498;-69
2023/08/13 12:06:11;;;;;;;0.20;0.20;;;21.00;99.90;;;;;;5097981;27;20125;-67
2023/08/13 12:08:36;;;;;;;1.13;0.50;;;21.10;99.90;;;;;;5100527;27;20098;-67
2023/08/13 12:11:02;;;;;;;0.20;0.20;;;21.20;99.90;;;;;;5103496;27;20063;-67
2023/08/13 12:13:28;;;;;;;0.43;0.20;;;21.30;99.90;;;;;;5093832;27;20070;-68
2023/08/13 12:15:55;;;;;;;0.28;0.28;;;21.30;99.90;;;;;;5104979;27;20171;-67
2023/08/13 12:18:21;;;;;;;0.10;0.10;;;21.40;99.90;;;;;;5097678;27;20028;-68
2023/08/13 12:20:46;;;;;;;3.38;0.65;;;21.40;99.90;;;;;;5103497;27;20460;-67
2023/08/13 12:23:12;;;;;;;0.00;0.00;;;21.40;99.90;;;;;;5100552;27;20035;-68
2023/08/13 12:25:38;;;;;;;0.28;0.28;;;21.40;99.90;;;;;;5129607;27;20035;-68
2023/08/13 12:28:04;;;;;;;0.15;0.15;;;21.50;99.90;;;;;;5103441;27;20031;-68
2023/08/13 12:30:30;;;;;;;3.72;0.57;;;21.60;99.90;;;;;;5105042;27;20070;-68
2023/08/13 12:32:56;;;;;;;0.10;0.10;;;21.60;99.90;;;;;;5100688;27;20070;-68
2023/08/13 12:35:24;;;;;;;0.32;0.32;;;21.60;99.90;;;;;;5099000;28;20057;-67
2023/08/13 12:37:50;;;;;;;0.10;0.10;;;21.60;99.90;;;;;;5100064;27;20070;-68
2023/08/13 12:40:16;;;;;;;0.25;0.20;;;21.60;99.90;;;;;;5102078;27;20078;-68
2023/08/13 12:42:41;;;;;;;0.82;0.80;;;21.60;99.90;;;;;;5095176;27;20047;-68
2023/08/13 12:45:08;;;;;;;0.08;0.08;;;21.70;99.90;;;;;;5101697;27;20035;-68